createdAt,value
2023-01-22T00:01:40.424Z,4.80
2023-01-22T00:04:48.060Z,5.07
2023-01-22T00:07:56.156Z,8.52
2023-01-22T00:11:06.678Z,5.22
2023-01-22T00:14:12.918Z,7.35
2023-01-22T00:17:23.013Z,3.45
2023-01-22T00:20:29.127Z,6.72
2023-01-22T00:23:37.369Z,5.28
2023-01-22T00:26:49.753Z,1.80
2023-01-22T00:29:57.549Z,5.93
2023-01-22T00:33:09.876Z,5.60
2023-01-22T00:36:16.490Z,12.07
2023-01-22T00:39:27.635Z,5.10
2023-01-22T00:42:34.289Z,6.80
2023-01-22T00:45:41.738Z,4.60
2023-01-22T00:48:53.902Z,4.68
2023-01-22T00:52:02.386Z,4.97
2023-01-22T00:55:09.321Z,3.83
2023-01-22T00:58:17.884Z,4.38
2023-01-22T01:01:31.065Z,7.05
2023-01-22T01:04:42.855Z,3.70
2023-01-22T01:07:51.457Z,4.63
2023-01-22T01:11:07.305Z,4.18
2023-01-22T01:14:19.810Z,3.15
2023-01-22T01:17:26.168Z,7.10
2023-01-22T01:20:35.706Z,4.45
2023-01-22T01:23:42.882Z,5.35
2023-01-22T01:26:50.533Z,6.53
2023-01-22T01:29:58.170Z,5.45
2023-01-22T01:33:05.715Z,5.20
2023-01-22T01:36:18.267Z,7.25
2023-01-22T01:39:25.023Z,5.18
2023-01-22T01:42:34.691Z,5.53
2023-01-22T01:45:44.961Z,4.57
2023-01-22T01:49:03.009Z,3.13
2023-01-22T01:52:12.489Z,4.97
2023-01-22T01:55:20.912Z,5.30
2023-01-22T01:58:26.362Z,4.70
2023-01-22T02:01:34.412Z,7.60
2023-01-22T02:04:40.264Z,4.22
2023-01-22T02:07:56.769Z,4.57
2023-01-22T02:11:08.781Z,3.53
2023-01-22T02:14:17.339Z,3.90
2023-01-22T02:17:26.607Z,5.43
2023-01-22T02:20:42.449Z,4.80
2023-01-22T02:23:58.524Z,7.60
2023-01-22T02:27:05.497Z,2.90
2023-01-22T02:30:12.452Z,3.72
2023-01-22T02:33:20.046Z,3.67
2023-01-22T02:36:35.499Z,2.92
2023-01-22T02:39:43.313Z,4.13
2023-01-22T02:42:48.943Z,4.45
2023-01-22T02:45:55.569Z,3.42
2023-01-22T02:49:12.171Z,3.50
2023-01-22T02:52:21.340Z,5.70
2023-01-22T02:55:27.070Z,3.00
2023-01-22T02:58:36.214Z,2.90
2023-01-22T03:01:44.359Z,4.22
2023-01-22T03:04:52.256Z,5.80
2023-01-22T03:08:00.614Z,2.78
2023-01-22T03:11:08.156Z,5.32
2023-01-22T03:14:25.633Z,9.23
2023-01-22T03:17:49.523Z,3.97
2023-01-22T03:21:08.462Z,5.75
2023-01-22T03:24:21.574Z,2.38
2023-01-22T03:27:31.285Z,5.10
2023-01-22T03:30:37.809Z,7.78
2023-01-22T03:33:44.460Z,4.35
2023-01-22T03:36:54.924Z,3.45
2023-01-22T03:40:03.615Z,3.83
2023-01-22T03:43:11.862Z,5.78
2023-01-22T03:46:20.041Z,4.70
2023-01-22T03:49:26.440Z,5.88
2023-01-22T03:52:35.750Z,4.45
2023-01-22T03:55:45.667Z,6.93
2023-01-22T03:58:51.620Z,5.60
2023-01-22T04:01:57.939Z,5.25
2023-01-22T04:05:03.581Z,5.57
2023-01-22T04:08:12.612Z,5.40
2023-01-22T04:11:20.475Z,4.90
2023-01-22T04:14:29.915Z,4.60
2023-01-22T04:17:37.650Z,5.15
2023-01-22T04:20:44.128Z,3.05
2023-01-22T04:23:50.543Z,5.78
2023-01-22T04:27:00.684Z,4.03
2023-01-22T04:30:05.936Z,2.83
2023-01-22T04:33:12.484Z,3.17
2023-01-22T04:36:18.731Z,5.03
2023-01-22T04:39:27.223Z,6.22
2023-01-22T04:42:38.300Z,4.43
2023-01-22T04:45:44.327Z,4.32
2023-01-22T04:48:53.311Z,5.40
2023-01-22T04:52:01.262Z,7.65
2023-01-22T04:55:07.196Z,7.28
2023-01-22T04:58:21.499Z,6.25
2023-01-22T05:01:29.296Z,5.50
2023-01-22T05:04:36.883Z,6.72
2023-01-22T05:07:46.451Z,3.80
2023-01-22T05:10:53.658Z,5.72
2023-01-22T05:14:02.257Z,4.63
2023-01-22T05:17:10.553Z,4.38
2023-01-22T05:20:26.051Z,5.28
2023-01-22T05:23:32.207Z,5.13
2023-01-22T05:26:37.549Z,4.43
2023-01-22T05:29:46.491Z,3.72
2023-01-22T05:32:52.876Z,6.10
2023-01-22T05:36:00.689Z,4.88
2023-01-22T05:39:06.293Z,6.22
2023-01-22T05:42:16.180Z,6.32
2023-01-22T05:45:25.559Z,5.68
2023-01-22T05:48:31.245Z,4.25
2023-01-22T05:51:39.221Z,4.63
2023-01-22T05:54:47.402Z,3.65
2023-01-22T05:57:52.681Z,6.68
2023-01-22T06:01:02.662Z,3.20
2023-01-22T06:04:08.203Z,3.90
2023-01-22T06:07:15.409Z,6.90
2023-01-22T06:10:21.972Z,6.38
2023-01-22T06:13:27.789Z,6.13
2023-01-22T06:16:37.551Z,4.45
2023-01-22T06:19:43.337Z,6.82
2023-01-22T06:22:53.528Z,5.10
2023-01-22T06:26:02.886Z,7.00
2023-01-22T06:29:09.594Z,8.18
2023-01-22T06:32:18.373Z,2.60
2023-01-22T06:35:25.272Z,3.90
2023-01-22T06:38:31.122Z,4.82
2023-01-22T06:41:37.560Z,5.50
2023-01-22T06:44:43.247Z,4.93
2023-01-22T06:47:51.789Z,5.60
2023-01-22T06:51:02.676Z,5.05
2023-01-22T06:54:10.293Z,4.93
2023-01-22T06:57:20.669Z,5.72
2023-01-22T07:00:32.072Z,7.03
2023-01-22T07:03:42.732Z,7.20
2023-01-22T07:06:49.623Z,5.32
2023-01-22T07:10:05.378Z,3.30
2023-01-22T07:13:10.590Z,3.50
2023-01-22T07:16:17.770Z,5.00
2023-01-22T07:19:26.517Z,4.13
2023-01-22T07:22:33.883Z,6.40
2023-01-22T07:25:42.729Z,7.55
2023-01-22T07:28:48.585Z,5.80
2023-01-22T07:31:54.073Z,5.32
2023-01-22T07:35:02.794Z,7.13
2023-01-22T07:38:10.260Z,4.50
2023-01-22T07:41:25.442Z,6.80
2023-01-22T07:44:32.307Z,6.00
2023-01-22T07:47:40.935Z,7.47
2023-01-22T07:50:49.328Z,5.50
2023-01-22T07:53:55.705Z,6.55
2023-01-22T07:57:02.901Z,8.75
2023-01-22T08:00:10.853Z,4.40
2023-01-22T08:03:17.836Z,6.70
2023-01-22T08:06:26.472Z,6.55
2023-01-22T08:09:34.065Z,8.13
2023-01-22T08:12:46.325Z,5.82
2023-01-22T08:15:57.012Z,6.80
2023-01-22T08:19:03.799Z,5.63
2023-01-22T08:22:12.955Z,7.88
2023-01-22T08:25:18.712Z,5.97
2023-01-22T08:28:25.669Z,9.77
2023-01-22T08:31:31.863Z,6.60
2023-01-22T08:34:39.226Z,8.93
2023-01-22T08:37:48.076Z,7.60
2023-01-22T08:40:56.676Z,9.82
2023-01-22T08:44:03.763Z,9.45
2023-01-22T08:47:10.964Z,7.30
2023-01-22T08:50:18.050Z,7.03
2023-01-22T08:53:27.524Z,9.00
2023-01-22T08:56:37.474Z,8.90
2023-01-22T08:59:59.703Z,7.20
2023-01-22T09:03:06.391Z,8.80
2023-01-22T09:06:12.288Z,10.43
2023-01-22T09:09:21.682Z,35.55
2023-01-22T09:12:30.493Z,24.80
2023-01-22T09:15:40.161Z,12.98
2023-01-22T09:18:48.729Z,6.57
2023-01-22T09:21:57.267Z,6.65
2023-01-22T09:25:05.612Z,8.70
2023-01-22T09:28:13.901Z,8.48
2023-01-22T09:31:19.657Z,8.75
2023-01-22T09:34:27.470Z,11.07
2023-01-22T09:37:40.624Z,7.10
2023-01-22T09:40:59.170Z,6.57
2023-01-22T09:44:07.982Z,5.72
2023-01-22T09:47:20.189Z,7.72
2023-01-22T09:50:30.303Z,6.35
2023-01-22T09:53:38.157Z,8.43
2023-01-22T09:56:48.317Z,7.57
2023-01-22T09:59:57.984Z,8.02
2023-01-22T10:03:20.483Z,6.80
2023-01-22T10:06:37.070Z,6.90
2023-01-22T10:09:47.383Z,10.10
2023-01-22T10:13:00.236Z,8.80
2023-01-22T10:16:28.689Z,6.68
2023-01-22T10:19:38.508Z,9.48
2023-01-22T10:22:44.821Z,5.63
2023-01-22T10:25:55.409Z,6.18
2023-01-22T10:29:10.558Z,8.98
2023-01-22T10:32:20.675Z,8.73
2023-01-22T10:35:34.706Z,7.93
2023-01-22T10:38:41.717Z,5.55
2023-01-22T10:41:49.019Z,6.93
2023-01-22T10:45:14.978Z,5.45
2023-01-22T10:48:23.047Z,6.70
2023-01-22T10:51:35.684Z,8.30
2023-01-22T10:54:44.043Z,5.20
2023-01-22T10:57:56.288Z,7.55
2023-01-22T11:01:20.952Z,5.88
2023-01-22T11:04:29.469Z,5.35
2023-01-22T11:07:48.662Z,5.40
2023-01-22T11:10:57.746Z,3.97
2023-01-22T11:14:16.796Z,4.57
2023-01-22T11:17:37.903Z,4.38
2023-01-22T11:20:56.498Z,4.47
2023-01-22T11:24:07.416Z,3.90
2023-01-22T11:27:19.748Z,4.32
2023-01-22T11:30:41.163Z,3.30
2023-01-22T11:34:02.010Z,5.53
2023-01-22T11:37:11.814Z,5.05
2023-01-22T11:40:30.235Z,3.65
2023-01-22T11:43:45.239Z,4.85
2023-01-22T11:47:00.083Z,16.20
2023-01-22T11:50:29.087Z,8.32
2023-01-22T11:54:04.563Z,3.75
2023-01-22T11:57:27.796Z,3.10
2023-01-22T12:00:43.986Z,4.03
2023-01-22T12:04:16.062Z,3.55
2023-01-22T12:07:26.480Z,5.07
2023-01-22T12:10:43.459Z,9.02
2023-01-22T12:14:10.718Z,5.38
2023-01-22T12:17:36.543Z,6.45
2023-01-22T12:21:28.145Z,7.18
2023-01-22T12:24:51.456Z,6.72
2023-01-22T12:28:15.191Z,6.68
2023-01-22T12:31:26.402Z,5.82
2023-01-22T12:34:36.091Z,6.35
2023-01-22T12:41:24.488Z,10.13
2023-01-22T12:44:40.300Z,7.45
2023-01-22T12:50:55.627Z,7.50
2023-01-22T12:54:12.947Z,8.57
2023-01-22T12:57:27.349Z,8.75
2023-01-22T13:00:56.054Z,13.27
2023-01-22T13:04:11.196Z,11.45
2023-01-22T13:07:29.081Z,8.32
2023-01-22T13:10:36.525Z,9.20
2023-01-22T13:13:50.264Z,8.95
2023-01-22T13:16:59.941Z,8.07
2023-01-22T13:20:18.691Z,9.07
2023-01-22T13:23:29.073Z,8.07
2023-01-22T13:26:45.694Z,10.55
2023-01-22T13:29:54.056Z,12.60
2023-01-22T13:33:08.564Z,8.45
2023-01-22T13:36:17.592Z,8.32
2023-01-22T13:39:30.295Z,7.55
2023-01-22T13:42:43.133Z,7.47
2023-01-22T13:45:53.660Z,9.43
2023-01-22T13:49:09.191Z,12.77
2023-01-22T13:52:19.196Z,11.30
2023-01-22T13:55:27.590Z,8.82
2023-01-22T13:58:48.258Z,9.40
2023-01-22T14:01:59.628Z,10.13
2023-01-22T14:05:10.443Z,9.57
2023-01-22T14:08:30.642Z,9.18
2023-01-22T14:11:42.030Z,11.02
2023-01-22T14:14:49.858Z,14.00
2023-01-22T14:17:55.842Z,9.80
2023-01-22T14:21:01.683Z,9.75
2023-01-22T14:24:18.070Z,10.38
2023-01-22T14:27:27.430Z,12.02
2023-01-22T14:30:33.195Z,9.40
2023-01-22T14:33:39.768Z,10.70
2023-01-22T14:36:47.552Z,13.05
2023-01-22T14:40:05.259Z,10.70
2023-01-22T14:43:12.568Z,13.18
2023-01-22T14:46:22.541Z,12.27
2023-01-22T14:49:29.368Z,10.93
2023-01-22T14:52:40.562Z,10.60
2023-01-22T14:55:49.610Z,9.10
2023-01-22T14:59:07.616Z,10.30
2023-01-22T15:02:15.128Z,11.77
2023-01-22T15:05:23.849Z,10.57
2023-01-22T15:08:36.431Z,8.77
2023-01-22T15:11:47.190Z,10.55
2023-01-22T15:14:52.503Z,12.35
2023-01-22T15:17:58.907Z,11.20
2023-01-22T15:21:07.263Z,11.45
2023-01-22T15:24:14.622Z,11.23
2023-01-22T15:27:23.702Z,11.82
2023-01-22T15:30:29.763Z,11.07
2023-01-22T15:33:38.029Z,11.18
2023-01-22T15:36:49.173Z,10.88
2023-01-22T15:40:02.458Z,12.77
2023-01-22T15:43:13.713Z,9.57
2023-01-22T15:46:20.712Z,12.07
2023-01-22T15:49:31.646Z,12.13
2023-01-22T15:52:37.360Z,14.73
2023-01-22T15:55:44.984Z,12.77
2023-01-22T15:58:55.240Z,15.40
2023-01-22T16:02:02.977Z,21.25
2023-01-22T16:05:10.113Z,16.27
2023-01-22T16:08:17.578Z,12.73
2023-01-22T16:11:58.867Z,10.18
2023-01-22T16:15:14.838Z,12.07
2023-01-22T16:21:48.675Z,12.05
2023-01-22T16:25:00.400Z,14.25
2023-01-22T16:28:14.953Z,13.25
2023-01-22T16:31:29.078Z,11.20
2023-01-22T16:34:38.860Z,10.63
2023-01-22T16:37:57.035Z,13.45
2023-01-22T16:41:08.759Z,9.73
2023-01-22T16:44:16.547Z,12.68
2023-01-22T16:47:41.651Z,11.73
2023-01-22T16:50:51.763Z,13.38
2023-01-22T16:54:03.637Z,14.68
2023-01-22T16:57:11.049Z,11.07
2023-01-22T17:00:20.880Z,13.90
2023-01-22T17:03:30.958Z,11.18
2023-01-22T17:06:49.121Z,9.80
2023-01-22T17:10:06.749Z,10.68
2023-01-22T17:13:19.562Z,12.05
2023-01-22T17:16:25.578Z,11.98
2023-01-22T17:19:39.079Z,10.68
2023-01-22T17:22:56.028Z,13.00
2023-01-22T17:26:07.730Z,12.77
2023-01-22T17:29:19.430Z,13.75
2023-01-22T17:32:27.257Z,12.82
2023-01-22T17:35:37.529Z,12.07
2023-01-22T17:38:56.815Z,14.38
2023-01-22T17:42:19.577Z,15.65
2023-01-22T17:45:25.863Z,17.10
2023-01-22T17:48:33.482Z,15.85
2023-01-22T17:51:45.577Z,19.30
2023-01-22T17:54:53.385Z,17.25
2023-01-22T17:58:03.897Z,19.60
2023-01-22T18:01:11.071Z,20.30
2023-01-22T18:04:19.226Z,30.95
2023-01-22T18:07:35.730Z,29.70
2023-01-22T18:10:45.446Z,23.73
2023-01-22T18:13:58.543Z,20.48
2023-01-22T18:17:06.566Z,17.52
2023-01-22T18:20:22.573Z,20.75
2023-01-22T18:23:43.912Z,18.00
2023-01-22T18:26:58.614Z,25.20
2023-01-22T18:30:12.164Z,18.95
2023-01-22T18:33:20.908Z,20.08
2023-01-22T18:36:30.307Z,18.38
2023-01-22T18:39:49.071Z,19.00
2023-01-22T18:43:11.331Z,33.40
2023-01-22T18:46:20.753Z,32.85
2023-01-22T18:49:28.398Z,34.95
2023-01-22T18:52:39.603Z,21.52
2023-01-22T18:55:50.655Z,26.20
2023-01-22T18:58:59.397Z,24.02
2023-01-22T19:02:15.470Z,25.23
2023-01-22T19:05:30.637Z,25.67
2023-01-22T19:08:37.414Z,20.05
2023-01-22T19:11:52.345Z,19.77
2023-01-22T19:15:05.373Z,52.53
2023-01-22T19:18:16.033Z,33.53
2023-01-22T19:21:23.845Z,20.45
2023-01-22T19:24:35.573Z,15.93
2023-01-22T19:27:55.557Z,12.90
2023-01-22T19:31:04.085Z,13.50
2023-01-22T19:34:14.362Z,19.42
2023-01-22T19:40:39.561Z,14.25
2023-01-22T19:43:48.551Z,13.70
2023-01-22T19:47:03.027Z,20.08
2023-01-22T19:50:10.846Z,14.75
2023-01-22T19:53:18.728Z,16.65
2023-01-22T19:56:32.821Z,12.50
2023-01-22T19:59:53.159Z,10.45
2023-01-22T20:03:07.590Z,10.85
2023-01-22T20:06:18.292Z,11.02
2023-01-22T20:09:27.091Z,20.88
2023-01-22T20:12:35.344Z,16.25
2023-01-22T20:15:51.222Z,11.10
2023-01-22T20:19:00.870Z,45.08
2023-01-22T20:22:10.925Z,14.77
2023-01-22T20:25:21.919Z,14.55
2023-01-22T20:28:32.227Z,11.90
2023-01-22T20:31:44.893Z,10.27
2023-01-22T20:34:59.615Z,9.00
2023-01-22T20:38:06.129Z,9.13
2023-01-22T20:41:18.703Z,9.32
2023-01-22T20:44:24.090Z,7.30
2023-01-22T20:47:36.279Z,6.60
2023-01-22T20:50:44.344Z,6.97
2023-01-22T20:53:54.936Z,7.53
2023-01-22T20:57:05.106Z,7.60
2023-01-22T21:00:20.240Z,13.23
2023-01-22T21:03:36.867Z,14.55
2023-01-22T21:06:43.358Z,9.40
2023-01-22T21:09:57.161Z,14.82
2023-01-22T21:13:04.791Z,17.65
2023-01-22T21:16:26.665Z,11.90
2023-01-22T21:19:36.033Z,17.67
2023-01-22T21:22:42.535Z,18.20
2023-01-22T21:25:50.008Z,29.30
2023-01-22T21:28:59.953Z,22.73
2023-01-22T21:32:07.199Z,37.38
2023-01-22T21:35:21.212Z,22.95
2023-01-22T21:38:27.162Z,18.67
2023-01-22T21:41:36.759Z,19.27
2023-01-22T21:44:59.073Z,11.10
2023-01-22T21:48:13.738Z,16.10
2023-01-22T21:51:23.137Z,15.98
2023-01-22T21:54:30.845Z,17.40
2023-01-22T21:57:38.070Z,14.23
2023-01-22T22:00:48.067Z,18.83
2023-01-22T22:03:56.137Z,16.25
2023-01-22T22:07:17.670Z,21.65
2023-01-22T22:10:30.563Z,14.13
2023-01-22T22:13:39.907Z,14.52
2023-01-22T22:17:00.495Z,11.25
2023-01-22T22:20:10.188Z,11.35
2023-01-22T22:23:19.838Z,12.88
2023-01-22T22:26:25.825Z,15.13
2023-01-22T22:29:34.360Z,34.33
2023-01-22T22:32:44.819Z,30.75
2023-01-22T22:35:51.159Z,57.92
2023-01-22T22:39:00.166Z,27.80
2023-01-22T22:42:13.872Z,24.88
2023-01-22T22:45:23.402Z,10.73
2023-01-22T22:48:30.464Z,10.23
2023-01-22T22:51:37.810Z,9.02
2023-01-22T22:54:46.384Z,9.38
2023-01-22T22:57:52.263Z,9.68
2023-01-22T23:01:03.189Z,10.25
2023-01-22T23:04:12.665Z,9.57
2023-01-22T23:07:19.087Z,8.45
2023-01-22T23:10:35.031Z,11.73
2023-01-22T23:13:48.282Z,9.90
2023-01-22T23:16:56.406Z,11.63
2023-01-22T23:20:03.894Z,9.82
2023-01-22T23:23:14.419Z,9.77
2023-01-22T23:26:28.301Z,9.70
2023-01-22T23:29:34.429Z,12.80
2023-01-22T23:32:42.870Z,13.25
2023-01-22T23:35:53.806Z,25.52
2023-01-22T23:38:59.997Z,54.00
2023-01-22T23:42:09.293Z,33.92
2023-01-22T23:45:18.239Z,19.15
2023-01-22T23:48:24.639Z,16.60
2023-01-22T23:51:30.966Z,14.25
2023-01-22T23:54:38.412Z,10.55
2023-01-22T23:57:48.804Z,9.10
